sensor_id;sensor_type;location;lat;lon;timestamp;pressure;altitude;pressure_sealevel;temperature;humidity
13080;BME280;6606;49.154;9.280;2023-02-01T00:00:46;100306.75;;;5.69;100.00
13080;BME280;6606;49.154;9.280;2023-02-01T00:03:27;100312.09;;;5.63;100.00
13080;BME280;6606;49.154;9.280;2023-02-01T00:06:09;100299.72;;;5.69;100.00
13080;BME280;6606;49.154;9.280;2023-02-01T00:08:52;100296.38;;;5.61;100.00
13080;BME280;6606;49.154;9.280;2023-02-01T00:11:34;100320.81;;;5.66;100.00
13080;BME280;6606;49.154;9.280;2023-02-01T00:14:17;100294.31;;;5.76;100.00
13080;BME280;6606;49.154;9.280;2023-02-01T00:16:58;100291.66;;;5.77;100.00
13080;BME280;6606;49.154;9.280;2023-02-01T00:19:40;100283.19;;;5.63;100.00
13080;BME280;6606;49.154;9.280;2023-02-01T00:22:22;100275.13;;;5.70;100.00
13080;BME280;6606;49.154;9.280;2023-02-01T00:25:04;100270.72;;;5.72;100.00
13080;BME280;6606;49.154;9.280;2023-02-01T00:27:48;100257.50;;;5.74;100.00
13080;BME280;6606;49.154;9.280;2023-02-01T00:30:31;100259.22;;;5.77;100.00
13080;BME280;6606;49.154;9.280;2023-02-01T00:33:13;100262.13;;;5.63;100.00
13080;BME280;6606;49.154;9.280;2023-02-01T00:35:56;100253.53;;;5.55;100.00
13080;BME280;6606;49.154;9.280;2023-02-01T00:38:39;100254.31;;;5.61;100.00
13080;BME280;6606;49.154;9.280;2023-02-01T00:41:21;100248.22;;;5.58;100.00
13080;BME280;6606;49.154;9.280;2023-02-01T00:44:03;100263.25;;;5.51;100.00
13080;BME280;6606;49.154;9.280;2023-02-01T00:46:46;100271.81;;;5.61;100.00
13080;BME280;6606;49.154;9.280;2023-02-01T00:49:28;100271.66;;;5.68;100.00
13080;BME280;6606;49.154;9.280;2023-02-01T00:52:10;100263.94;;;5.61;100.00
13080;BME280;6606;49.154;9.280;2023-02-01T00:54:52;100264.53;;;5.73;100.00
13080;BME280;6606;49.154;9.280;2023-02-01T00:57:33;100257.50;;;5.74;100.00
13080;BME280;6606;49.154;9.280;2023-02-01T01:00:16;100257.50;;;5.76;100.00
13080;BME280;6606;49.154;9.280;2023-02-01T01:02:59;100240.78;;;5.78;100.00
13080;BME280;6606;49.154;9.280;2023-02-01T01:05:41;100247.03;;;5.72;100.00
13080;BME280;6606;49.154;9.280;2023-02-01T01:08:23;100254.84;;;5.77;100.00
13080;BME280;6606;49.154;9.280;2023-02-01T01:11:06;100262.81;;;5.72;100.00
13080;BME280;6606;49.154;9.280;2023-02-01T01:13:50;100267.09;;;5.78;100.00
13080;BME280;6606;49.154;9.280;2023-02-01T01:16:33;100267.22;;;5.72;100.00
13080;BME280;6606;49.154;9.280;2023-02-01T01:19:16;100275.19;;;5.67;100.00
13080;BME280;6606;49.154;9.280;2023-02-01T01:21:58;100273.28;;;5.76;100.00
13080;BME280;6606;49.154;9.280;2023-02-01T01:24:39;100273.28;;;5.76;100.00
13080;BME280;6606;49.154;9.280;2023-02-01T01:27:21;100275.84;;;5.79;100.00
13080;BME280;6606;49.154;9.280;2023-02-01T01:30:05;100276.53;;;5.87;100.00
13080;BME280;6606;49.154;9.280;2023-02-01T01:32:47;100275.59;;;5.89;100.00
13080;BME280;6606;49.154;9.280;2023-02-01T01:35:31;100269.50;;;5.87;100.00
13080;BME280;6606;49.154;9.280;2023-02-01T01:38:13;100265.91;;;5.93;100.00
13080;BME280;6606;49.154;9.280;2023-02-01T01:40:54;100266.78;;;5.92;100.00
13080;BME280;6606;49.154;9.280;2023-02-01T01:43:47;100272.13;;;5.89;100.00
13080;BME280;6606;49.154;9.280;2023-02-01T01:46:33;100284.34;;;5.91;100.00
13080;BME280;6606;49.154;9.280;2023-02-01T01:49:18;100277.28;;;5.95;100.00
13080;BME280;6606;49.154;9.280;2023-02-01T01:52:03;100269.38;;;5.95;100.00
13080;BME280;6606;49.154;9.280;2023-02-01T01:54:47;100253.56;;;5.97;100.00
13080;BME280;6606;49.154;9.280;2023-02-01T01:57:33;100246.47;;;6.00;100.00
13080;BME280;6606;49.154;9.280;2023-02-01T02:00:18;100239.38;;;6.04;100.00
13080;BME280;6606;49.154;9.280;2023-02-01T02:03:12;100229.13;;;5.90;100.00
13080;BME280;6606;49.154;9.280;2023-02-01T02:05:57;100227.41;;;5.89;100.00
13080;BME280;6606;49.154;9.280;2023-02-01T02:08:41;100224.59;;;5.98;100.00
13080;BME280;6606;49.154;9.280;2023-02-01T02:11:24;100241.28;;;5.97;100.00
13080;BME280;6606;49.154;9.280;2023-02-01T02:14:08;100241.28;;;5.97;100.00
13080;BME280;6606;49.154;9.280;2023-02-01T02:17:07;100227.00;;;6.07;100.00
13080;BME280;6606;49.154;9.280;2023-02-01T02:20:30;100234.06;;;6.05;100.00
13080;BME280;6606;49.154;9.280;2023-02-01T02:23:47;100221.03;;;6.01;100.00
13080;BME280;6606;49.154;9.280;2023-02-01T02:26:46;100234.16;;;6.02;100.00
13080;BME280;6606;49.154;9.280;2023-02-01T02:36:02;100223.69;;;5.99;100.00
13080;BME280;6606;49.154;9.280;2023-02-01T02:38:50;100210.63;;;5.94;100.00
13080;BME280;6606;49.154;9.280;2023-02-01T02:41:42;100204.41;;;5.99;100.00
13080;BME280;6606;49.154;9.280;2023-02-01T02:44:48;100215.81;;;5.98;100.00
13080;BME280;6606;49.154;9.280;2023-02-01T02:47:54;100215.81;;;5.99;100.00
13080;BME280;6606;49.154;9.280;2023-02-01T02:50:38;100203.50;;;6.00;100.00
13080;BME280;6606;49.154;9.280;2023-02-01T02:53:47;100195.03;;;5.85;100.00
13080;BME280;6606;49.154;9.280;2023-02-01T02:56:48;100195.75;;;5.92;100.00
13080;BME280;6606;49.154;9.280;2023-02-01T02:59:48;100191.41;;;5.91;100.00
13080;BME280;6606;49.154;9.280;2023-02-01T03:02:48;100186.22;;;5.88;100.00
13080;BME280;6606;49.154;9.280;2023-02-01T03:05:49;100186.84;;;5.99;100.00
13080;BME280;6606;49.154;9.280;2023-02-01T03:08:32;100181.75;;;5.90;100.00
13080;BME280;6606;49.154;9.280;2023-02-01T03:11:15;100186.97;;;5.93;100.00
13080;BME280;6606;49.154;9.280;2023-02-01T03:14:00;100183.31;;;6.00;100.00
13080;BME280;6606;49.154;9.280;2023-02-01T03:16:46;100186.84;;;5.99;100.00
13080;BME280;6606;49.154;9.280;2023-02-01T03:19:34;100178.06;;;6.00;100.00
13080;BME280;6606;49.154;9.280;2023-02-01T03:22:17;100184.13;;;6.04;100.00
13080;BME280;6606;49.154;9.280;2023-02-01T03:25:05;100179.06;;;5.94;100.00
13080;BME280;6606;49.154;9.280;2023-02-01T03:27:53;100179.00;;;5.98;100.00
13080;BME280;6606;49.154;9.280;2023-02-01T03:30:39;100194.41;;;6.14;100.00
13080;BME280;6606;49.154;9.280;2023-02-01T03:33:24;100198.16;;;6.03;100.00
13080;BME280;6606;49.154;9.280;2023-02-01T03:36:15;100197.31;;;6.02;100.00
13080;BME280;6606;49.154;9.280;2023-02-01T03:39:02;100192.81;;;6.07;100.00
13080;BME280;6606;49.154;9.280;2023-02-01T03:41:48;100202.56;;;6.02;100.00
13080;BME280;6606;49.154;9.280;2023-02-01T03:44:35;100189.34;;;6.05;100.00
13080;BME280;6606;49.154;9.280;2023-02-01T03:47:20;100190.03;;;6.13;100.00
13080;BME280;6606;49.154;9.280;2023-02-01T03:50:08;100191.94;;;6.07;100.00
13080;BME280;6606;49.154;9.280;2023-02-01T03:52:54;100193.66;;;6.09;100.00
13080;BME280;6606;49.154;9.280;2023-02-01T03:55:38;100196.28;;;6.09;100.00
13080;BME280;6606;49.154;9.280;2023-02-01T03:58:22;100188.56;;;6.00;100.00
13080;BME280;6606;49.154;9.280;2023-02-01T04:01:05;100190.09;;;6.10;100.00
13080;BME280;6606;49.154;9.280;2023-02-01T04:03:51;100184.75;;;6.13;100.00
13080;BME280;6606;49.154;9.280;2023-02-01T04:06:33;100190.19;;;6.07;100.00
13080;BME280;6606;49.154;9.280;2023-02-01T04:09:17;100189.13;;;6.14;100.00
13080;BME280;6606;49.154;9.280;2023-02-01T04:11:59;100201.31;;;6.19;100.00
13080;BME280;6606;49.154;9.280;2023-02-01T04:14:41;100210.88;;;6.23;100.00
13080;BME280;6606;49.154;9.280;2023-02-01T04:17:24;100202.06;;;6.24;100.00
13080;BME280;6606;49.154;9.280;2023-02-01T04:20:06;100210.28;;;6.11;100.00
13080;BME280;6606;49.154;9.280;2023-02-01T04:22:47;100205.81;;;6.13;100.00
13080;BME280;6606;49.154;9.280;2023-02-01T04:25:29;100203.09;;;6.16;100.00
13080;BME280;6606;49.154;9.280;2023-02-01T04:28:11;100185.81;;;6.06;100.00
13080;BME280;6606;49.154;9.280;2023-02-01T04:30:53;100181.50;;;6.04;100.00
13080;BME280;6606;49.154;9.280;2023-02-01T04:33:36;100179.88;;;5.98;100.00
13080;BME280;6606;49.154;9.280;2023-02-01T04:36:18;100171.84;;;6.04;100.00
13080;BME280;6606;49.154;9.280;2023-02-01T04:39:02;100171.75;;;6.07;100.00
13080;BME280;6606;49.154;9.280;2023-02-01T04:41:43;100185.00;;;6.03;100.00
13080;BME280;6606;49.154;9.280;2023-02-01T04:44:25;100181.38;;;6.08;100.00
13080;BME280;6606;49.154;9.280;2023-02-01T04:47:07;100181.44;;;6.05;100.00
13080;BME280;6606;49.154;9.280;2023-02-01T04:49:51;100167.41;;;6.06;100.00
13080;BME280;6606;49.154;9.280;2023-02-01T04:52:32;100171.78;;;6.06;100.00
13080;BME280;6606;49.154;9.280;2023-02-01T04:55:14;100157.81;;;6.04;100.00
13080;BME280;6606;49.154;9.280;2023-02-01T04:57:56;100166.41;;;6.10;100.00
13080;BME280;6606;49.154;9.280;2023-02-01T05:00:38;100156.72;;;6.12;100.00
13080;BME280;6606;49.154;9.280;2023-02-01T05:03:19;100157.41;;;6.19;100.00
13080;BME280;6606;49.154;9.280;2023-02-01T05:06:04;100154.94;;;6.14;100.00
13080;BME280;6606;49.154;9.280;2023-02-01T05:08:45;100159.34;;;6.12;100.00
13080;BME280;6606;49.154;9.280;2023-02-01T05:11:27;100160.00;;;6.22;100.00
13080;BME280;6606;49.154;9.280;2023-02-01T05:14:26;100170.41;;;6.27;100.00
13080;BME280;6606;49.154;9.280;2023-02-01T05:17:08;100164.28;;;6.26;100.00
13080;BME280;6606;49.154;9.280;2023-02-01T05:19:49;100167.22;;;6.14;100.00
13080;BME280;6606;49.154;9.280;2023-02-01T05:22:32;100163.53;;;6.21;100.00
13080;BME280;6606;49.154;9.280;2023-02-01T05:25:14;100166.34;;;6.13;100.00
13080;BME280;6606;49.154;9.280;2023-02-01T05:27:55;100162.09;;;6.08;100.00
13080;BME280;6606;49.154;9.280;2023-02-01T05:30:40;100167.34;;;6.08;100.00
13080;BME280;6606;49.154;9.280;2023-02-01T05:33:22;100177.16;;;6.01;100.00
13080;BME280;6606;49.154;9.280;2023-02-01T05:36:12;100182.28;;;6.07;100.00
13080;BME280;6606;49.154;9.280;2023-02-01T05:38:55;100189.16;;;6.13;100.00
13080;BME280;6606;49.154;9.280;2023-02-01T05:41:37;100185.66;;;6.14;100.00
13080;BME280;6606;49.154;9.280;2023-02-01T05:44:19;100197.16;;;6.08;100.00
13080;BME280;6606;49.154;9.280;2023-02-01T05:47:00;100194.50;;;6.10;100.00
13080;BME280;6606;49.154;9.280;2023-02-01T05:49:42;100193.91;;;5.99;100.00
13080;BME280;6606;49.154;9.280;2023-02-01T05:52:24;100193.75;;;6.05;100.00
13080;BME280;6606;49.154;9.280;2023-02-01T05:55:07;100186.84;;;5.99;100.00
13080;BME280;6606;49.154;9.280;2023-02-01T05:57:49;100188.56;;;6.00;100.00
13080;BME280;6606;49.154;9.280;2023-02-01T06:00:31;100184.25;;;5.98;100.00
13080;BME280;6606;49.154;9.280;2023-02-01T06:03:12;100186.63;;;6.08;100.00
13080;BME280;6606;49.154;9.280;2023-02-01T06:05:54;100171.19;;;5.93;100.00
13080;BME280;6606;49.154;9.280;2023-02-01T06:08:36;100164.09;;;5.98;100.00
13080;BME280;6606;49.154;9.280;2023-02-01T06:11:21;100162.16;;;6.06;100.00
13080;BME280;6606;49.154;9.280;2023-02-01T06:14:03;100164.91;;;6.00;100.00
13080;BME280;6606;49.154;9.280;2023-02-01T06:16:45;100152.91;;;5.87;100.00
13080;BME280;6606;49.154;9.280;2023-02-01T06:19:26;100144.94;;;5.90;100.00
13080;BME280;6606;49.154;9.280;2023-02-01T06:22:08;100143.03;;;5.98;100.00
13080;BME280;6606;49.154;9.280;2023-02-01T06:24:50;100157.91;;;5.99;100.00
13080;BME280;6606;49.154;9.280;2023-02-01T06:27:33;100148.31;;;5.98;100.00
13080;BME280;6606;49.154;9.280;2023-02-01T06:30:16;100158.84;;;5.98;100.00
13080;BME280;6606;49.154;9.280;2023-02-01T06:32:59;100154.28;;;6.05;100.00
13080;BME280;6606;49.154;9.280;2023-02-01T06:35:41;100169.41;;;5.95;100.00
13080;BME280;6606;49.154;9.280;2023-02-01T06:38:24;100178.13;;;5.97;100.00
13080;BME280;6606;49.154;9.280;2023-02-01T06:41:06;100170.31;;;5.94;100.00
13080;BME280;6606;49.154;9.280;2023-02-01T06:43:50;100182.56;;;5.95;100.00
13080;BME280;6606;49.154;9.280;2023-02-01T06:46:31;100189.59;;;5.94;100.00
13080;BME280;6606;49.154;9.280;2023-02-01T06:49:13;100196.75;;;5.86;100.00
13080;BME280;6606;49.154;9.280;2023-02-01T06:51:55;100202.72;;;5.96;100.00
13080;BME280;6606;49.154;9.280;2023-02-01T06:54:36;100204.16;;;6.09;100.00
13080;BME280;6606;49.154;9.280;2023-02-01T06:57:18;100212.91;;;6.11;100.00
13080;BME280;6606;49.154;9.280;2023-02-01T07:00:02;100204.28;;;6.03;100.00
13080;BME280;6606;49.154;9.280;2023-02-01T07:02:44;100207.81;;;6.04;100.00
13080;BME280;6606;49.154;9.280;2023-02-01T07:05:25;100223.53;;;6.05;100.00
13080;BME280;6606;49.154;9.280;2023-02-01T07:08:07;100220.16;;;6.00;100.00
13080;BME280;6606;49.154;9.280;2023-02-01T07:10:49;100214.63;;;6.11;100.00
13080;BME280;6606;49.154;9.280;2023-02-01T07:13:30;100219.16;;;6.06;100.00
13080;BME280;6606;49.154;9.280;2023-02-01T07:16:16;100209.63;;;6.00;100.00
13080;BME280;6606;49.154;9.280;2023-02-01T07:18:57;100211.22;;;6.07;100.00
13080;BME280;6606;49.154;9.280;2023-02-01T07:21:40;100218.28;;;6.05;100.00
13080;BME280;6606;49.154;9.280;2023-02-01T07:24:21;100226.31;;;5.99;100.00
13080;BME280;6606;49.154;9.280;2023-02-01T07:27:03;100233.94;;;6.11;100.00
13080;BME280;6606;49.154;9.280;2023-02-01T07:29:45;100231.50;;;6.04;100.00
13080;BME280;6606;49.154;9.280;2023-02-01T07:32:28;100229.66;;;6.07;100.00
13080;BME280;6606;49.154;9.280;2023-02-01T07:35:09;100230.56;;;6.06;100.00
13080;BME280;6606;49.154;9.280;2023-02-01T07:37:51;100240.94;;;6.12;100.00
13080;BME280;6606;49.154;9.280;2023-02-01T07:40:33;100249.53;;;6.19;100.00
13080;BME280;6606;49.154;9.280;2023-02-01T07:43:14;100232.72;;;6.26;100.00
13080;BME280;6606;49.154;9.280;2023-02-01T07:45:56;100228.63;;;6.14;100.00
13080;BME280;6606;49.154;9.280;2023-02-01T07:48:40;100214.38;;;6.22;100.00
13080;BME280;6606;49.154;9.280;2023-02-01T07:51:21;100218.88;;;6.18;100.00
13080;BME280;6606;49.154;9.280;2023-02-01T07:54:03;100221.53;;;6.16;100.00
13080;BME280;6606;49.154;9.280;2023-02-01T07:56:45;100217.25;;;6.12;100.00
13080;BME280;6606;49.154;9.280;2023-02-01T07:59:26;100196.19;;;6.14;100.00
13080;BME280;6606;49.154;9.280;2023-02-01T08:02:08;100194.44;;;6.13;100.00
13080;BME280;6606;49.154;9.280;2023-02-01T08:04:51;100189.91;;;6.20;100.00
13080;BME280;6606;49.154;9.280;2023-02-01T08:07:33;100192.63;;;6.15;100.00
13080;BME280;6606;49.154;9.280;2023-02-01T08:10:15;100215.53;;;6.11;100.00
13080;BME280;6606;49.154;9.280;2023-02-01T08:12:58;100227.59;;;6.20;100.00
13080;BME280;6606;49.154;9.280;2023-02-01T08:15:40;100232.44;;;6.38;100.00
13080;BME280;6606;49.154;9.280;2023-02-01T08:18:21;100231.31;;;6.49;100.00
13080;BME280;6606;49.154;9.280;2023-02-01T08:21:06;100232.19;;;6.48;100.00
13080;BME280;6606;49.154;9.280;2023-02-01T08:23:48;100242.69;;;6.49;100.00
13080;BME280;6606;49.154;9.280;2023-02-01T08:26:30;100248.56;;;6.60;100.00
13080;BME280;6606;49.154;9.280;2023-02-01T08:29:12;100239.31;;;6.44;100.00
13080;BME280;6606;49.154;9.280;2023-02-01T08:31:54;100246.03;;;6.56;100.00
13080;BME280;6606;49.154;9.280;2023-02-01T08:34:35;100249.59;;;6.55;100.00
13080;BME280;6606;49.154;9.280;2023-02-01T08:37:18;100249.00;;;6.42;100.00
13080;BME280;6606;49.154;9.280;2023-02-01T08:40:01;100260.53;;;6.38;100.00
13080;BME280;6606;49.154;9.280;2023-02-01T08:42:43;100270.16;;;6.39;100.00
13080;BME280;6606;49.154;9.280;2023-02-01T08:45:34;100267.59;;;6.36;100.00
13080;BME280;6606;49.154;9.280;2023-02-01T08:48:16;100256.47;;;6.25;100.00
13080;BME280;6606;49.154;9.280;2023-02-01T08:51:01;100269.72;;;6.19;100.00
13080;BME280;6606;49.154;9.280;2023-02-01T08:53:44;100269.91;;;6.11;100.00
13080;BME280;6606;49.154;9.280;2023-02-01T08:56:26;100261.00;;;6.16;100.00
13080;BME280;6606;49.154;9.280;2023-02-01T08:59:08;100262.59;;;6.24;100.00
13080;BME280;6606;49.154;9.280;2023-02-01T09:01:49;100260.72;;;6.30;100.00
13080;BME280;6606;49.154;9.280;2023-02-01T09:04:31;100259.78;;;6.31;100.00
13080;BME280;6606;49.154;9.280;2023-02-01T09:07:13;100263.28;;;6.32;100.00
13080;BME280;6606;49.154;9.280;2023-02-01T09:09:56;100265.03;;;6.33;100.00
13080;BME280;6606;49.154;9.280;2023-02-01T09:12:41;100256.66;;;6.53;100.00
13080;BME280;6606;49.154;9.280;2023-02-01T09:15:22;100245.84;;;6.64;100.00
13080;BME280;6606;49.154;9.280;2023-02-01T09:18:04;100251.41;;;6.87;100.00
13080;BME280;6606;49.154;9.280;2023-02-01T09:20:46;100259.13;;;6.95;100.00
13080;BME280;6606;49.154;9.280;2023-02-01T09:23:27;100273.66;;;7.10;100.00
13080;BME280;6606;49.154;9.280;2023-02-01T09:26:10;100260.50;;;7.10;100.00
13080;BME280;6606;49.154;9.280;2023-02-01T09:28:52;100265.31;;;7.26;100.00
13080;BME280;6606;49.154;9.280;2023-02-01T09:31:34;100273.25;;;7.25;100.00
13080;BME280;6606;49.154;9.280;2023-02-01T09:34:15;100268.41;;;7.10;100.00
13080;BME280;6606;49.154;9.280;2023-02-01T09:36:57;100278.59;;;7.22;100.00
13080;BME280;6606;49.154;9.280;2023-02-01T09:39:39;100282.25;;;7.18;100.00
13080;BME280;6606;49.154;9.280;2023-02-01T09:42:40;100293.66;;;7.18;100.00
13080;BME280;6606;49.154;9.280;2023-02-01T09:45:31;100282.16;;;7.21;100.00
13080;BME280;6606;49.154;9.280;2023-02-01T09:48:19;100288.47;;;7.14;100.00
13080;BME280;6606;49.154;9.280;2023-02-01T09:51:04;100288.66;;;7.08;100.00
13080;BME280;6606;49.154;9.280;2023-02-01T09:53:58;100301.00;;;7.05;100.00
13080;BME280;6606;49.154;9.280;2023-02-01T09:56:45;100302.31;;;7.23;100.00
13080;BME280;6606;49.154;9.280;2023-02-01T09:59:34;100296.31;;;7.17;100.00
13080;BME280;6606;49.154;9.280;2023-02-01T10:02:21;100309.53;;;7.15;100.00
13080;BME280;6606;49.154;9.280;2023-02-01T10:05:05;100308.25;;;7.30;100.00
13080;BME280;6606;49.154;9.280;2023-02-01T10:07:54;100310.59;;;7.42;100.00
13080;BME280;6606;49.154;9.280;2023-02-01T10:10:43;100341.25;;;7.46;100.00
13080;BME280;6606;49.154;9.280;2023-02-01T10:13:39;100336.66;;;7.53;100.00
13080;BME280;6606;49.154;9.280;2023-02-01T10:16:36;100339.91;;;7.30;100.00
13080;BME280;6606;49.154;9.280;2023-02-01T10:19:35;100342.13;;;7.13;100.00
13080;BME280;6606;49.154;9.280;2023-02-01T10:22:28;100333.91;;;6.91;100.00
13080;BME280;6606;49.154;9.280;2023-02-01T10:25:21;100340.16;;;6.85;100.00
13080;BME280;6606;49.154;9.280;2023-02-01T10:28:11;100361.22;;;6.85;100.00
13080;BME280;6606;49.154;9.280;2023-02-01T10:30:57;100340.88;;;6.93;100.00
13080;BME280;6606;49.154;9.280;2023-02-01T10:33:42;100342.50;;;6.97;100.00
13080;BME280;6606;49.154;9.280;2023-02-01T10:36:29;100336.94;;;7.10;100.00
13080;BME280;6606;49.154;9.280;2023-02-01T10:39:14;100327.72;;;7.26;100.00
13080;BME280;6606;49.154;9.280;2023-02-01T10:41:56;100331.44;;;7.52;100.00
13080;BME280;6606;49.154;9.280;2023-02-01T10:44:42;100330.03;;;7.71;100.00
13080;BME280;6606;49.154;9.280;2023-02-01T10:47:25;100340.06;;;7.89;100.00
13080;BME280;6606;49.154;9.280;2023-02-01T10:50:16;100329.06;;;8.05;100.00
13080;BME280;6606;49.154;9.280;2023-02-01T10:53:02;100320.03;;;8.12;100.00
13080;BME280;6606;49.154;9.280;2023-02-01T10:55:48;100320.03;;;8.12;100.00
13080;BME280;6606;49.154;9.280;2023-02-01T10:58:31;100324.66;;;7.74;100.00
13080;BME280;6606;49.154;9.280;2023-02-01T11:01:18;100318.00;;;7.61;100.00
13080;BME280;6606;49.154;9.280;2023-02-01T11:04:01;100313.25;;;7.41;100.00
13080;BME280;6606;49.154;9.280;2023-02-01T11:06:45;100312.91;;;7.55;100.00
13080;BME280;6606;49.154;9.280;2023-02-01T11:09:28;100303.63;;;7.40;100.00
13080;BME280;6606;49.154;9.280;2023-02-01T11:12:24;100294.06;;;7.67;100.00
13080;BME280;6606;49.154;9.280;2023-02-01T11:15:15;100300.94;;;7.41;100.00
13080;BME280;6606;49.154;9.280;2023-02-01T11:18:15;100295.38;;;7.19;100.00
13080;BME280;6606;49.154;9.280;2023-02-01T11:20:58;100275.47;;;7.08;100.00
13080;BME280;6606;49.154;9.280;2023-02-01T11:23:44;100256.66;;;7.21;100.00
13080;BME280;6606;49.154;9.280;2023-02-01T11:26:27;100273.22;;;7.26;100.00
13080;BME280;6606;49.154;9.280;2023-02-01T11:29:11;100263.72;;;7.19;100.00
13080;BME280;6606;49.154;9.280;2023-02-01T11:31:55;100252.53;;;7.44;100.00
13080;BME280;6606;49.154;9.280;2023-02-01T11:34:41;100255.28;;;7.70;100.00
13080;BME280;6606;49.154;9.280;2023-02-01T11:37:26;100247.69;;;7.60;100.00
13080;BME280;6606;49.154;9.280;2023-02-01T11:40:26;100242.47;;;7.57;100.00
13080;BME280;6606;49.154;9.280;2023-02-01T11:43:14;100246.38;;;7.43;100.00
13080;BME280;6606;49.154;9.280;2023-02-01T11:45:58;100241.56;;;7.26;100.00
13080;BME280;6606;49.154;9.280;2023-02-01T11:48:40;100243.69;;;7.14;100.00
13080;BME280;6606;49.154;9.280;2023-02-01T11:51:36;100241.59;;;7.25;100.00
13080;BME280;6606;49.154;9.280;2023-02-01T11:54:38;100233.53;;;7.31;100.00
13080;BME280;6606;49.154;9.280;2023-02-01T11:57:43;100222.16;;;7.29;100.00
13080;BME280;6606;49.154;9.280;2023-02-01T12:00:46;100231.22;;;7.19;100.00
13080;BME280;6606;49.154;9.280;2023-02-01T12:04:25;100225.13;;;7.17;100.00
13080;BME280;6606;49.154;9.280;2023-02-01T12:07:18;100241.09;;;7.12;100.00
13080;BME280;6606;49.154;9.280;2023-02-01T12:10:15;100231.66;;;7.03;100.00
13080;BME280;6606;49.154;9.280;2023-02-01T12:13:12;100246.88;;;7.25;100.00
13080;BME280;6606;49.154;9.280;2023-02-01T12:16:02;100229.16;;;7.30;100.00
13080;BME280;6606;49.154;9.280;2023-02-01T12:19:10;100241.28;;;7.37;100.00
13080;BME280;6606;49.154;9.280;2023-02-01T12:22:03;100254.53;;;7.36;100.00
13080;BME280;6606;49.154;9.280;2023-02-01T12:24:58;100235.66;;;7.49;100.00
13080;BME280;6606;49.154;9.280;2023-02-01T12:28:05;100240.81;;;7.54;100.00
13080;BME280;6606;49.154;9.280;2023-02-01T12:31:19;100252.66;;;7.39;100.00
13080;BME280;6606;49.154;9.280;2023-02-01T12:37:21;100243.59;;;7.17;100.00
13080;BME280;6606;49.154;9.280;2023-02-01T12:40:16;100248.63;;;7.26;100.00
13080;BME280;6606;49.154;9.280;2023-02-01T12:43:09;100248.53;;;7.29;100.00
13080;BME280;6606;49.154;9.280;2023-02-01T12:45:58;100242.44;;;7.27;100.00
13080;BME280;6606;49.154;9.280;2023-02-01T12:48:48;100266.16;;;7.27;100.00
13080;BME280;6606;49.154;9.280;2023-02-01T12:51:35;100225.72;;;7.28;100.00
13080;BME280;6606;49.154;9.280;2023-02-01T12:54:25;100225.66;;;7.30;100.00
13080;BME280;6606;49.154;9.280;2023-02-01T12:57:12;100224.69;;;7.34;100.00
13080;BME280;6606;49.154;9.280;2023-02-01T13:00:06;100223.63;;;7.39;100.00
13080;BME280;6606;49.154;9.280;2023-02-01T13:03:00;100213.63;;;7.21;100.00
13080;BME280;6606;49.154;9.280;2023-02-01T13:05:48;100197.69;;;7.24;100.00
13080;BME280;6606;49.154;9.280;2023-02-01T13:08:38;100214.91;;;7.37;100.00
13080;BME280;6606;49.154;9.280;2023-02-01T13:11:24;100208.38;;;7.19;100.00
13080;BME280;6606;49.154;9.280;2023-02-01T13:14:14;100203.28;;;7.44;100.00
13080;BME280;6606;49.154;9.280;2023-02-01T13:17:03;100204.25;;;7.40;100.00
13080;BME280;6606;49.154;9.280;2023-02-01T13:19:49;100209.38;;;7.46;100.00
13080;BME280;6606;49.154;9.280;2023-02-01T13:22:37;100214.56;;;7.49;100.00
13080;BME280;6606;49.154;9.280;2023-02-01T13:25:29;100188.06;;;7.54;100.00
13080;BME280;6606;49.154;9.280;2023-02-01T13:28:17;100191.41;;;7.89;100.00
13080;BME280;6606;49.154;9.280;2023-02-01T13:31:24;100199.69;;;7.77;100.00
13080;BME280;6606;49.154;9.280;2023-02-01T13:34:43;100187.09;;;7.86;100.00
13080;BME280;6606;49.154;9.280;2023-02-01T13:40:55;100193.66;;;7.73;100.00
13080;BME280;6606;49.154;9.280;2023-02-01T13:43:48;100191.38;;;7.61;100.00
13080;BME280;6606;49.154;9.280;2023-02-01T13:46:38;100175.63;;;7.58;100.00
13080;BME280;6606;49.154;9.280;2023-02-01T13:49:23;100180.16;;;7.54;100.00
13080;BME280;6606;49.154;9.280;2023-02-01T13:52:24;100170.38;;;7.56;100.00
13080;BME280;6606;49.154;9.280;2023-02-01T13:55:28;100171.09;;;7.63;100.00
13080;BME280;6606;49.154;9.280;2023-02-01T13:58:15;100180.44;;;7.43;100.00
13080;BME280;6606;49.154;9.280;2023-02-01T14:04:48;100172.63;;;7.40;100.00
13080;BME280;6606;49.154;9.280;2023-02-01T14:07:31;100186.53;;;7.45;100.00
13080;BME280;6606;49.154;9.280;2023-02-01T14:10:47;100188.97;;;7.22;100.00
13080;BME280;6606;49.154;9.280;2023-02-01T14:13:30;100187.06;;;7.27;100.00
13080;BME280;6606;49.154;9.280;2023-02-01T14:16:14;100197.97;;;7.15;100.00
13080;BME280;6606;49.154;9.280;2023-02-01T14:19:00;100206.84;;;7.11;100.00
13080;BME280;6606;49.154;9.280;2023-02-01T14:21:48;100197.34;;;7.05;100.00
13080;BME280;6606;49.154;9.280;2023-02-01T14:24:34;100206.53;;;7.23;100.00
13080;BME280;6606;49.154;9.280;2023-02-01T14:27:21;100202.00;;;7.28;100.00
13080;BME280;6606;49.154;9.280;2023-02-01T14:30:07;100207.56;;;7.17;100.00
13080;BME280;6606;49.154;9.280;2023-02-01T14:32:49;100206.00;;;7.10;100.00
13080;BME280;6606;49.154;9.280;2023-02-01T14:35:30;100201.25;;;7.23;100.00
13080;BME280;6606;49.154;9.280;2023-02-01T14:38:12;100217.38;;;7.12;100.00
13080;BME280;6606;49.154;9.280;2023-02-01T14:40:55;100203.38;;;7.09;100.00
13080;BME280;6606;49.154;9.280;2023-02-01T14:43:50;100199.16;;;7.03;100.00
13080;BME280;6606;49.154;9.280;2023-02-01T14:47:02;100212.25;;;7.06;100.00
13080;BME280;6606;49.154;9.280;2023-02-01T14:49:49;100212.41;;;7.01;100.00
13080;BME280;6606;49.154;9.280;2023-02-01T14:52:36;100207.91;;;7.05;100.00
13080;BME280;6606;49.154;9.280;2023-02-01T14:55:21;100206.03;;;7.09;100.00
13080;BME280;6606;49.154;9.280;2023-02-01T14:58:15;100198.22;;;7.05;100.00